Terminal Aerodrome Forecast
Issued by NWS Albany, NY

Home | Current Version | Previous Version | Text Only | Print | Product List | Glossary On
Versions: 1 2 3 4 5 6 7 8 9 10 11 12 13 14 15
000
FTUS41 KALY 250540
TAFPOU
TAF
KPOU 250540Z 2506/2606 VRB03KT P6SM BKN250
     FM250900 VRB03KT P6SM VCSH SCT080 BKN150
     FM251200 19004KT P6SM VCSH SCT050 OVC080
     FM251700 22008G16KT P6SM SCT070 BKN200 PROB30 2521/2524
      VRB15G30KT 3SM -TSRA BR BKN070CB
     FM260000 24004KT 5SM BR SCT150 BKN250=

USA.gov is the U.S. government's official web portal to all federal, state and local government web resources and services.